sensor_id;sensor_type;location;lat;lon;timestamp;temperature;humidity
20479;DHT22;10398;52.490;13.434;2022-12-29T00:02:11;9.10;99.90
20479;DHT22;10398;52.490;13.434;2022-12-29T00:04:37;9.10;99.90
20479;DHT22;10398;52.490;13.434;2022-12-29T00:07:03;9.10;99.90
20479;DHT22;10398;52.490;13.434;2022-12-29T00:09:35;9.10;99.90
20479;DHT22;10398;52.490;13.434;2022-12-29T00:12:02;9.00;99.90
20479;DHT22;10398;52.490;13.434;2022-12-29T00:14:28;9.00;99.90
20479;DHT22;10398;52.490;13.434;2022-12-29T00:17:13;9.00;99.90
20479;DHT22;10398;52.490;13.434;2022-12-29T00:19:38;9.10;99.90
20479;DHT22;10398;52.490;13.434;2022-12-29T00:22:23;9.10;99.90
20479;DHT22;10398;52.490;13.434;2022-12-29T00:25:09;9.10;99.90
20479;DHT22;10398;52.490;13.434;2022-12-29T00:27:54;9.10;99.90
20479;DHT22;10398;52.490;13.434;2022-12-29T00:30:38;9.10;99.90
20479;DHT22;10398;52.490;13.434;2022-12-29T00:33:27;9.20;99.90
20479;DHT22;10398;52.490;13.434;2022-12-29T00:36:19;9.20;99.90
20479;DHT22;10398;52.490;13.434;2022-12-29T00:38:52;9.30;99.90
20479;DHT22;10398;52.490;13.434;2022-12-29T00:41:37;9.20;99.90
20479;DHT22;10398;52.490;13.434;2022-12-29T00:44:21;9.20;99.90
20479;DHT22;10398;52.490;13.434;2022-12-29T00:46:47;9.30;99.90
20479;DHT22;10398;52.490;13.434;2022-12-29T00:49:13;9.30;99.90
20479;DHT22;10398;52.490;13.434;2022-12-29T00:54:31;9.30;99.90
20479;DHT22;10398;52.490;13.434;2022-12-29T00:56:57;9.30;99.90
20479;DHT22;10398;52.490;13.434;2022-12-29T00:59:23;9.30;99.90
20479;DHT22;10398;52.490;13.434;2022-12-29T01:01:50;9.20;99.90
20479;DHT22;10398;52.490;13.434;2022-12-29T01:04:16;9.20;99.90
20479;DHT22;10398;52.490;13.434;2022-12-29T01:06:41;9.30;99.90
20479;DHT22;10398;52.490;13.434;2022-12-29T01:09:08;9.40;99.90
20479;DHT22;10398;52.490;13.434;2022-12-29T01:11:53;9.30;99.90
20479;DHT22;10398;52.490;13.434;2022-12-29T01:14:19;9.30;99.90
20479;DHT22;10398;52.490;13.434;2022-12-29T01:16:46;9.30;99.90
20479;DHT22;10398;52.490;13.434;2022-12-29T01:19:12;9.30;99.90
20479;DHT22;10398;52.490;13.434;2022-12-29T01:21:38;9.30;99.90
20479;DHT22;10398;52.490;13.434;2022-12-29T01:24:03;9.30;99.90
20479;DHT22;10398;52.490;13.434;2022-12-29T01:26:29;9.30;99.90
20479;DHT22;10398;52.490;13.434;2022-12-29T01:28:55;9.30;99.90
20479;DHT22;10398;52.490;13.434;2022-12-29T01:31:20;9.30;99.90
20479;DHT22;10398;52.490;13.434;2022-12-29T01:33:46;9.40;99.90
20479;DHT22;10398;52.490;13.434;2022-12-29T01:36:15;9.40;99.90
20479;DHT22;10398;52.490;13.434;2022-12-29T01:38:41;9.40;99.90
20479;DHT22;10398;52.490;13.434;2022-12-29T01:41:08;9.40;99.90
20479;DHT22;10398;52.490;13.434;2022-12-29T01:43:46;9.40;99.90
20479;DHT22;10398;52.490;13.434;2022-12-29T01:46:34;9.30;99.90
20479;DHT22;10398;52.490;13.434;2022-12-29T01:49:22;9.30;99.90
20479;DHT22;10398;52.490;13.434;2022-12-29T01:52:00;9.40;99.90
20479;DHT22;10398;52.490;13.434;2022-12-29T01:54:30;9.40;99.90
20479;DHT22;10398;52.490;13.434;2022-12-29T01:56:59;9.40;99.90
20479;DHT22;10398;52.490;13.434;2022-12-29T01:59:29;9.30;99.90
20479;DHT22;10398;52.490;13.434;2022-12-29T02:01:56;9.30;99.90
20479;DHT22;10398;52.490;13.434;2022-12-29T02:04:23;9.30;99.90
20479;DHT22;10398;52.490;13.434;2022-12-29T02:06:55;9.40;99.90
20479;DHT22;10398;52.490;13.434;2022-12-29T02:09:23;9.40;99.90
20479;DHT22;10398;52.490;13.434;2022-12-29T02:11:49;9.30;99.90
20479;DHT22;10398;52.490;13.434;2022-12-29T02:14:15;9.30;99.90
20479;DHT22;10398;52.490;13.434;2022-12-29T02:16:45;9.30;99.90
20479;DHT22;10398;52.490;13.434;2022-12-29T02:22:36;9.40;99.90
20479;DHT22;10398;52.490;13.434;2022-12-29T02:25:18;9.40;99.90
20479;DHT22;10398;52.490;13.434;2022-12-29T02:27:58;9.40;99.90
20479;DHT22;10398;52.490;13.434;2022-12-29T02:30:44;9.40;99.90
20479;DHT22;10398;52.490;13.434;2022-12-29T02:36:12;9.50;99.90
20479;DHT22;10398;52.490;13.434;2022-12-29T02:39:15;9.40;99.90
20479;DHT22;10398;52.490;13.434;2022-12-29T02:44:51;9.40;99.90
20479;DHT22;10398;52.490;13.434;2022-12-29T02:50:14;9.60;99.90
20479;DHT22;10398;52.490;13.434;2022-12-29T02:52:46;9.60;99.90
20479;DHT22;10398;52.490;13.434;2022-12-29T02:55:13;9.70;99.90
20479;DHT22;10398;52.490;13.434;2022-12-29T02:57:39;9.70;99.90
20479;DHT22;10398;52.490;13.434;2022-12-29T03:00:08;9.80;99.90
20479;DHT22;10398;52.490;13.434;2022-12-29T03:11:12;9.80;99.90
20479;DHT22;10398;52.490;13.434;2022-12-29T03:14:22;9.80;99.90
20479;DHT22;10398;52.490;13.434;2022-12-29T03:17:28;9.90;99.90
20479;DHT22;10398;52.490;13.434;2022-12-29T03:20:01;9.90;99.90
20479;DHT22;10398;52.490;13.434;2022-12-29T03:22:31;9.90;99.90
20479;DHT22;10398;52.490;13.434;2022-12-29T03:25:02;10.00;99.90
20479;DHT22;10398;52.490;13.434;2022-12-29T03:27:35;10.00;99.90
20479;DHT22;10398;52.490;13.434;2022-12-29T03:30:03;10.00;99.90
20479;DHT22;10398;52.490;13.434;2022-12-29T03:32:54;10.00;99.90
20479;DHT22;10398;52.490;13.434;2022-12-29T03:35:24;10.10;99.90
20479;DHT22;10398;52.490;13.434;2022-12-29T03:40:52;10.10;99.90
20479;DHT22;10398;52.490;13.434;2022-12-29T03:43:21;10.10;99.90
20479;DHT22;10398;52.490;13.434;2022-12-29T03:45:47;10.20;99.90
20479;DHT22;10398;52.490;13.434;2022-12-29T03:48:12;10.20;99.90
20479;DHT22;10398;52.490;13.434;2022-12-29T03:50:38;10.20;99.90
20479;DHT22;10398;52.490;13.434;2022-12-29T03:53:04;10.10;99.90
20479;DHT22;10398;52.490;13.434;2022-12-29T03:55:29;10.10;99.90
20479;DHT22;10398;52.490;13.434;2022-12-29T03:57:55;10.20;99.90
20479;DHT22;10398;52.490;13.434;2022-12-29T04:00:20;10.30;99.90
20479;DHT22;10398;52.490;13.434;2022-12-29T04:02:46;10.20;99.90
20479;DHT22;10398;52.490;13.434;2022-12-29T04:05:12;10.30;99.90
20479;DHT22;10398;52.490;13.434;2022-12-29T04:07:38;10.30;99.90
20479;DHT22;10398;52.490;13.434;2022-12-29T04:10:04;10.30;99.90
20479;DHT22;10398;52.490;13.434;2022-12-29T04:12:30;10.30;99.90
20479;DHT22;10398;52.490;13.434;2022-12-29T04:14:55;10.30;99.90
20479;DHT22;10398;52.490;13.434;2022-12-29T04:17:21;10.40;99.90
20479;DHT22;10398;52.490;13.434;2022-12-29T04:19:46;10.30;99.90
20479;DHT22;10398;52.490;13.434;2022-12-29T04:22:12;10.30;99.90
20479;DHT22;10398;52.490;13.434;2022-12-29T04:24:38;10.30;99.90
20479;DHT22;10398;52.490;13.434;2022-12-29T04:27:04;10.40;99.90
20479;DHT22;10398;52.490;13.434;2022-12-29T04:29:29;10.40;99.90
20479;DHT22;10398;52.490;13.434;2022-12-29T04:31:55;10.40;99.90
20479;DHT22;10398;52.490;13.434;2022-12-29T04:34:20;10.30;99.90
20479;DHT22;10398;52.490;13.434;2022-12-29T04:36:46;10.30;99.90
20479;DHT22;10398;52.490;13.434;2022-12-29T04:39:12;10.30;99.90
20479;DHT22;10398;52.490;13.434;2022-12-29T04:41:38;10.40;99.90
20479;DHT22;10398;52.490;13.434;2022-12-29T04:44:03;10.40;99.90
20479;DHT22;10398;52.490;13.434;2022-12-29T04:46:29;10.40;99.90
20479;DHT22;10398;52.490;13.434;2022-12-29T04:48:54;10.40;99.90
20479;DHT22;10398;52.490;13.434;2022-12-29T04:51:20;10.40;99.90
20479;DHT22;10398;52.490;13.434;2022-12-29T04:53:46;10.40;99.90
20479;DHT22;10398;52.490;13.434;2022-12-29T04:56:11;10.40;99.90
20479;DHT22;10398;52.490;13.434;2022-12-29T04:58:37;10.40;99.90
20479;DHT22;10398;52.490;13.434;2022-12-29T05:01:03;10.50;99.90
20479;DHT22;10398;52.490;13.434;2022-12-29T05:03:28;10.50;99.90
20479;DHT22;10398;52.490;13.434;2022-12-29T05:05:55;10.50;99.90
20479;DHT22;10398;52.490;13.434;2022-12-29T05:08:21;10.60;99.90
20479;DHT22;10398;52.490;13.434;2022-12-29T05:10:47;10.50;99.90
20479;DHT22;10398;52.490;13.434;2022-12-29T05:13:13;10.60;99.90
20479;DHT22;10398;52.490;13.434;2022-12-29T05:15:39;10.60;99.90
20479;DHT22;10398;52.490;13.434;2022-12-29T05:18:04;10.60;99.90
20479;DHT22;10398;52.490;13.434;2022-12-29T05:20:30;10.60;99.90
20479;DHT22;10398;52.490;13.434;2022-12-29T05:22:55;10.60;99.90
20479;DHT22;10398;52.490;13.434;2022-12-29T05:25:21;10.60;99.90
20479;DHT22;10398;52.490;13.434;2022-12-29T05:27:47;10.70;99.90
20479;DHT22;10398;52.490;13.434;2022-12-29T05:30:12;10.60;99.90
20479;DHT22;10398;52.490;13.434;2022-12-29T05:32:38;10.70;99.90
20479;DHT22;10398;52.490;13.434;2022-12-29T05:35:04;10.70;99.90
20479;DHT22;10398;52.490;13.434;2022-12-29T05:37:30;10.70;99.90
20479;DHT22;10398;52.490;13.434;2022-12-29T05:39:55;10.80;99.90
20479;DHT22;10398;52.490;13.434;2022-12-29T05:42:21;10.80;99.90
20479;DHT22;10398;52.490;13.434;2022-12-29T05:44:46;10.70;99.90
20479;DHT22;10398;52.490;13.434;2022-12-29T05:47:15;10.70;99.90
20479;DHT22;10398;52.490;13.434;2022-12-29T05:49:40;10.80;99.90
20479;DHT22;10398;52.490;13.434;2022-12-29T05:52:06;10.80;99.90
20479;DHT22;10398;52.490;13.434;2022-12-29T05:54:32;10.80;99.90
20479;DHT22;10398;52.490;13.434;2022-12-29T05:56:57;10.90;99.90
20479;DHT22;10398;52.490;13.434;2022-12-29T05:59:23;10.90;99.90
20479;DHT22;10398;52.490;13.434;2022-12-29T06:01:48;10.90;99.90
20479;DHT22;10398;52.490;13.434;2022-12-29T06:04:14;10.90;99.90
20479;DHT22;10398;52.490;13.434;2022-12-29T06:06:40;11.00;99.90
20479;DHT22;10398;52.490;13.434;2022-12-29T06:09:06;11.00;99.90
20479;DHT22;10398;52.490;13.434;2022-12-29T06:11:31;11.00;99.90
20479;DHT22;10398;52.490;13.434;2022-12-29T06:13:57;11.00;99.90
20479;DHT22;10398;52.490;13.434;2022-12-29T06:16:22;11.10;99.90
20479;DHT22;10398;52.490;13.434;2022-12-29T06:18:48;11.10;99.90
20479;DHT22;10398;52.490;13.434;2022-12-29T06:21:14;11.10;99.90
20479;DHT22;10398;52.490;13.434;2022-12-29T06:23:39;11.10;99.90
20479;DHT22;10398;52.490;13.434;2022-12-29T06:26:05;11.10;99.90
20479;DHT22;10398;52.490;13.434;2022-12-29T06:28:30;11.20;99.90
20479;DHT22;10398;52.490;13.434;2022-12-29T06:30:57;11.20;99.90
20479;DHT22;10398;52.490;13.434;2022-12-29T06:33:22;11.20;99.90
20479;DHT22;10398;52.490;13.434;2022-12-29T06:35:48;11.20;99.90
20479;DHT22;10398;52.490;13.434;2022-12-29T06:38:14;11.20;99.90
20479;DHT22;10398;52.490;13.434;2022-12-29T06:40:39;11.20;99.90
20479;DHT22;10398;52.490;13.434;2022-12-29T06:43:06;11.20;99.90
20479;DHT22;10398;52.490;13.434;2022-12-29T06:45:32;11.20;99.90
20479;DHT22;10398;52.490;13.434;2022-12-29T06:47:58;11.20;99.90
20479;DHT22;10398;52.490;13.434;2022-12-29T06:50:23;11.20;99.90
20479;DHT22;10398;52.490;13.434;2022-12-29T06:52:49;11.20;99.90
20479;DHT22;10398;52.490;13.434;2022-12-29T06:55:15;11.20;99.90
20479;DHT22;10398;52.490;13.434;2022-12-29T06:57:41;11.20;99.90
20479;DHT22;10398;52.490;13.434;2022-12-29T07:00:07;11.30;99.90
20479;DHT22;10398;52.490;13.434;2022-12-29T07:02:33;11.30;99.90
20479;DHT22;10398;52.490;13.434;2022-12-29T07:04:59;11.30;99.90
20479;DHT22;10398;52.490;13.434;2022-12-29T07:07:25;11.30;99.90
20479;DHT22;10398;52.490;13.434;2022-12-29T07:09:50;11.30;99.90
20479;DHT22;10398;52.490;13.434;2022-12-29T07:12:16;11.30;99.90
20479;DHT22;10398;52.490;13.434;2022-12-29T07:14:41;11.30;99.90
20479;DHT22;10398;52.490;13.434;2022-12-29T07:17:07;11.30;99.90
20479;DHT22;10398;52.490;13.434;2022-12-29T07:19:33;11.30;99.90
20479;DHT22;10398;52.490;13.434;2022-12-29T07:21:59;11.30;99.90
20479;DHT22;10398;52.490;13.434;2022-12-29T07:24:24;11.30;99.90
20479;DHT22;10398;52.490;13.434;2022-12-29T07:26:53;11.20;99.90
20479;DHT22;10398;52.490;13.434;2022-12-29T07:29:19;11.20;99.90
20479;DHT22;10398;52.490;13.434;2022-12-29T07:31:48;11.20;99.90
20479;DHT22;10398;52.490;13.434;2022-12-29T07:34:13;11.20;99.90
20479;DHT22;10398;52.490;13.434;2022-12-29T07:36:39;11.10;99.90
20479;DHT22;10398;52.490;13.434;2022-12-29T07:39:05;11.20;99.90
20479;DHT22;10398;52.490;13.434;2022-12-29T07:41:30;11.20;99.90
20479;DHT22;10398;52.490;13.434;2022-12-29T07:43:56;11.20;99.90
20479;DHT22;10398;52.490;13.434;2022-12-29T07:46:21;11.20;99.90
20479;DHT22;10398;52.490;13.434;2022-12-29T07:48:47;11.20;99.90
20479;DHT22;10398;52.490;13.434;2022-12-29T07:51:13;11.20;99.90
20479;DHT22;10398;52.490;13.434;2022-12-29T07:53:38;11.20;99.90
20479;DHT22;10398;52.490;13.434;2022-12-29T07:56:04;11.20;99.90
20479;DHT22;10398;52.490;13.434;2022-12-29T07:58:30;11.20;99.90
20479;DHT22;10398;52.490;13.434;2022-12-29T08:00:56;11.30;99.90
20479;DHT22;10398;52.490;13.434;2022-12-29T08:03:22;11.30;99.90
20479;DHT22;10398;52.490;13.434;2022-12-29T08:05:48;11.30;99.90
20479;DHT22;10398;52.490;13.434;2022-12-29T08:08:14;11.30;99.90
20479;DHT22;10398;52.490;13.434;2022-12-29T08:10:40;11.30;99.90
20479;DHT22;10398;52.490;13.434;2022-12-29T08:13:06;11.30;99.90
20479;DHT22;10398;52.490;13.434;2022-12-29T08:15:32;11.30;99.90
20479;DHT22;10398;52.490;13.434;2022-12-29T08:17:57;11.20;99.90
20479;DHT22;10398;52.490;13.434;2022-12-29T08:20:23;11.30;99.90
20479;DHT22;10398;52.490;13.434;2022-12-29T08:22:49;11.30;99.90
20479;DHT22;10398;52.490;13.434;2022-12-29T08:25:17;11.30;99.90
20479;DHT22;10398;52.490;13.434;2022-12-29T08:27:44;11.30;99.90
20479;DHT22;10398;52.490;13.434;2022-12-29T08:30:10;11.30;99.90
20479;DHT22;10398;52.490;13.434;2022-12-29T08:32:36;11.40;99.90
20479;DHT22;10398;52.490;13.434;2022-12-29T08:35:02;11.30;99.90
20479;DHT22;10398;52.490;13.434;2022-12-29T08:37:27;11.30;99.90
20479;DHT22;10398;52.490;13.434;2022-12-29T08:39:53;11.40;99.90
20479;DHT22;10398;52.490;13.434;2022-12-29T08:42:19;11.40;99.90
20479;DHT22;10398;52.490;13.434;2022-12-29T08:44:44;11.40;99.90
20479;DHT22;10398;52.490;13.434;2022-12-29T08:47:11;11.40;99.90
20479;DHT22;10398;52.490;13.434;2022-12-29T08:49:36;11.40;99.90
20479;DHT22;10398;52.490;13.434;2022-12-29T08:52:03;11.40;99.90
20479;DHT22;10398;52.490;13.434;2022-12-29T08:54:29;11.40;99.90
20479;DHT22;10398;52.490;13.434;2022-12-29T08:56:54;11.40;99.90
20479;DHT22;10398;52.490;13.434;2022-12-29T08:59:20;11.40;99.90
20479;DHT22;10398;52.490;13.434;2022-12-29T09:01:45;11.50;99.90
20479;DHT22;10398;52.490;13.434;2022-12-29T09:04:11;11.70;99.90
20479;DHT22;10398;52.490;13.434;2022-12-29T09:06:37;11.80;99.90
20479;DHT22;10398;52.490;13.434;2022-12-29T09:09:02;11.80;99.90
20479;DHT22;10398;52.490;13.434;2022-12-29T09:11:28;11.90;99.90
20479;DHT22;10398;52.490;13.434;2022-12-29T09:13:54;11.90;99.90
20479;DHT22;10398;52.490;13.434;2022-12-29T09:16:22;11.90;99.90
20479;DHT22;10398;52.490;13.434;2022-12-29T09:18:48;11.90;99.90
20479;DHT22;10398;52.490;13.434;2022-12-29T09:21:14;11.90;99.90
20479;DHT22;10398;52.490;13.434;2022-12-29T09:23:40;12.00;99.90
20479;DHT22;10398;52.490;13.434;2022-12-29T09:26:06;12.20;99.90
20479;DHT22;10398;52.490;13.434;2022-12-29T09:28:32;12.30;99.90
20479;DHT22;10398;52.490;13.434;2022-12-29T09:30:58;12.50;99.90
20479;DHT22;10398;52.490;13.434;2022-12-29T09:33:24;12.60;99.90
20479;DHT22;10398;52.490;13.434;2022-12-29T09:35:55;12.70;99.90
20479;DHT22;10398;52.490;13.434;2022-12-29T09:38:22;12.80;99.90
20479;DHT22;10398;52.490;13.434;2022-12-29T09:40:53;12.70;99.90
20479;DHT22;10398;52.490;13.434;2022-12-29T09:48:47;12.50;99.90
20479;DHT22;10398;52.490;13.434;2022-12-29T09:51:18;12.40;99.90
20479;DHT22;10398;52.490;13.434;2022-12-29T09:53:55;12.40;99.90
20479;DHT22;10398;52.490;13.434;2022-12-29T09:56:23;12.50;99.90
20479;DHT22;10398;52.490;13.434;2022-12-29T09:59:04;12.50;99.90
20479;DHT22;10398;52.490;13.434;2022-12-29T10:01:36;12.60;99.90
20479;DHT22;10398;52.490;13.434;2022-12-29T10:04:07;12.60;99.90
20479;DHT22;10398;52.490;13.434;2022-12-29T10:23:29;12.60;99.90
20479;DHT22;10398;52.490;13.434;2022-12-29T10:25:57;12.60;99.90
20479;DHT22;10398;52.490;13.434;2022-12-29T10:29:02;12.60;99.90
20479;DHT22;10398;52.490;13.434;2022-12-29T10:31:41;12.70;99.90
20479;DHT22;10398;52.490;13.434;2022-12-29T10:34:22;12.70;99.90
20479;DHT22;10398;52.490;13.434;2022-12-29T10:36:53;12.80;99.90
20479;DHT22;10398;52.490;13.434;2022-12-29T10:39:32;12.80;99.90
20479;DHT22;10398;52.490;13.434;2022-12-29T10:42:07;12.80;99.90
20479;DHT22;10398;52.490;13.434;2022-12-29T10:44:35;12.90;99.90
20479;DHT22;10398;52.490;13.434;2022-12-29T10:47:07;12.90;99.90
20479;DHT22;10398;52.490;13.434;2022-12-29T10:49:42;12.90;99.90
20479;DHT22;10398;52.490;13.434;2022-12-29T10:52:09;13.00;99.90
20479;DHT22;10398;52.490;13.434;2022-12-29T10:59:59;13.00;99.90
20479;DHT22;10398;52.490;13.434;2022-12-29T11:07:41;13.00;99.90
20479;DHT22;10398;52.490;13.434;2022-12-29T11:13:15;13.00;99.90
20479;DHT22;10398;52.490;13.434;2022-12-29T11:15:49;13.00;99.90
20479;DHT22;10398;52.490;13.434;2022-12-29T11:20:46;13.00;99.90
20479;DHT22;10398;52.490;13.434;2022-12-29T11:23:28;12.90;99.90
20479;DHT22;10398;52.490;13.434;2022-12-29T11:28:43;12.90;99.90
20479;DHT22;10398;52.490;13.434;2022-12-29T11:31:09;12.90;99.90
20479;DHT22;10398;52.490;13.434;2022-12-29T11:33:37;12.90;99.90
20479;DHT22;10398;52.490;13.434;2022-12-29T11:36:22;12.80;99.90
20479;DHT22;10398;52.490;13.434;2022-12-29T11:38:53;12.70;99.90
20479;DHT22;10398;52.490;13.434;2022-12-29T11:41:25;12.70;99.90
20479;DHT22;10398;52.490;13.434;2022-12-29T11:43:53;12.70;99.90
20479;DHT22;10398;52.490;13.434;2022-12-29T11:46:30;12.60;99.90
20479;DHT22;10398;52.490;13.434;2022-12-29T11:48:58;12.60;99.90
20479;DHT22;10398;52.490;13.434;2022-12-29T11:51:32;12.50;99.90
20479;DHT22;10398;52.490;13.434;2022-12-29T11:54:02;12.40;99.90
20479;DHT22;10398;52.490;13.434;2022-12-29T11:56:40;12.40;99.90
20479;DHT22;10398;52.490;13.434;2022-12-29T12:02:15;12.40;99.90
20479;DHT22;10398;52.490;13.434;2022-12-29T12:04:48;12.30;99.90
20479;DHT22;10398;52.490;13.434;2022-12-29T12:07:18;12.20;99.90
20479;DHT22;10398;52.490;13.434;2022-12-29T12:09:58;12.20;99.90
20479;DHT22;10398;52.490;13.434;2022-12-29T12:12:53;12.10;99.90
20479;DHT22;10398;52.490;13.434;2022-12-29T12:15:30;11.90;99.90
20479;DHT22;10398;52.490;13.434;2022-12-29T12:18:02;11.80;99.90
20479;DHT22;10398;52.490;13.434;2022-12-29T12:26:13;11.50;99.90
20479;DHT22;10398;52.490;13.434;2022-12-29T12:28:51;11.50;99.90
20479;DHT22;10398;52.490;13.434;2022-12-29T12:34:08;11.40;99.90
20479;DHT22;10398;52.490;13.434;2022-12-29T12:36:52;11.40;99.90
20479;DHT22;10398;52.490;13.434;2022-12-29T12:39:30;11.40;99.90
20479;DHT22;10398;52.490;13.434;2022-12-29T12:43:02;11.40;99.90
20479;DHT22;10398;52.490;13.434;2022-12-29T12:50:55;11.50;99.90
20479;DHT22;10398;52.490;13.434;2022-12-29T13:12:28;11.30;99.90
20479;DHT22;10398;52.490;13.434;2022-12-29T13:17:38;11.40;99.90
20479;DHT22;10398;52.490;13.434;2022-12-29T13:23:16;11.40;99.90
20479;DHT22;10398;52.490;13.434;2022-12-29T13:25:47;11.40;99.90
20479;DHT22;10398;52.490;13.434;2022-12-29T13:28:52;11.30;99.90
20479;DHT22;10398;52.490;13.434;2022-12-29T13:34:23;11.40;99.90
20479;DHT22;10398;52.490;13.434;2022-12-29T13:36:59;11.40;99.90
20479;DHT22;10398;52.490;13.434;2022-12-29T13:39:49;11.40;99.90
20479;DHT22;10398;52.490;13.434;2022-12-29T13:42:18;11.40;99.90
20479;DHT22;10398;52.490;13.434;2022-12-29T13:47:36;11.40;99.90
20479;DHT22;10398;52.490;13.434;2022-12-29T13:50:08;11.40;99.90
20479;DHT22;10398;52.490;13.434;2022-12-29T13:56:03;11.40;99.90
20479;DHT22;10398;52.490;13.434;2022-12-29T14:07:37;11.60;99.90
20479;DHT22;10398;52.490;13.434;2022-12-29T14:10:04;11.50;99.90
20479;DHT22;10398;52.490;13.434;2022-12-29T14:15:15;11.50;99.90
20479;DHT22;10398;52.490;13.434;2022-12-29T14:17:44;11.50;99.90
20479;DHT22;10398;52.490;13.434;2022-12-29T14:20:23;11.50;99.90
20479;DHT22;10398;52.490;13.434;2022-12-29T14:28:30;11.50;99.90
20479;DHT22;10398;52.490;13.434;2022-12-29T14:31:04;11.50;99.90
20479;DHT22;10398;52.490;13.434;2022-12-29T14:33:33;11.50;99.90
20479;DHT22;10398;52.490;13.434;2022-12-29T14:36:20;11.50;99.90
20479;DHT22;10398;52.490;13.434;2022-12-29T14:38:46;11.60;99.90
20479;DHT22;10398;52.490;13.434;2022-12-29T14:41:35;11.50;99.90
20479;DHT22;10398;52.490;13.434;2022-12-29T14:44:26;11.50;99.90
20479;DHT22;10398;52.490;13.434;2022-12-29T14:49:33;11.50;99.90
20479;DHT22;10398;52.490;13.434;2022-12-29T14:52:25;11.60;99.90
20479;DHT22;10398;52.490;13.434;2022-12-29T14:57:40;11.50;99.90
20479;DHT22;10398;52.490;13.434;2022-12-29T15:00:15;11.50;99.90
20479;DHT22;10398;52.490;13.434;2022-12-29T15:02:53;11.50;99.90
20479;DHT22;10398;52.490;13.434;2022-12-29T15:05:42;11.50;99.90
20479;DHT22;10398;52.490;13.434;2022-12-29T15:08:11;11.50;99.90
20479;DHT22;10398;52.490;13.434;2022-12-29T15:11:04;11.50;99.90
20479;DHT22;10398;52.490;13.434;2022-12-29T15:13:36;11.40;99.90
20479;DHT22;10398;52.490;13.434;2022-12-29T15:16:03;11.40;99.90
20479;DHT22;10398;52.490;13.434;2022-12-29T15:18:31;11.40;99.90
20479;DHT22;10398;52.490;13.434;2022-12-29T15:21:05;11.40;99.90
20479;DHT22;10398;52.490;13.434;2022-12-29T15:23:34;11.40;99.90
20479;DHT22;10398;52.490;13.434;2022-12-29T15:26:05;11.40;99.90
20479;DHT22;10398;52.490;13.434;2022-12-29T15:28:57;11.30;99.90
20479;DHT22;10398;52.490;13.434;2022-12-29T15:31:25;11.30;99.90
20479;DHT22;10398;52.490;13.434;2022-12-29T15:33:53;11.30;99.90
20479;DHT22;10398;52.490;13.434;2022-12-29T15:36:25;11.30;99.90
20479;DHT22;10398;52.490;13.434;2022-12-29T15:38:51;11.20;99.90
20479;DHT22;10398;52.490;13.434;2022-12-29T15:41:41;11.30;99.90
20479;DHT22;10398;52.490;13.434;2022-12-29T15:44:46;11.30;99.90
20479;DHT22;10398;52.490;13.434;2022-12-29T15:47:25;11.30;99.90
20479;DHT22;10398;52.490;13.434;2022-12-29T15:50:00;11.30;99.90
20479;DHT22;10398;52.490;13.434;2022-12-29T15:52:27;11.30;99.90
20479;DHT22;10398;52.490;13.434;2022-12-29T15:54:54;11.20;99.90
20479;DHT22;10398;52.490;13.434;2022-12-29T15:57:25;11.20;99.90
20479;DHT22;10398;52.490;13.434;2022-12-29T15:59:51;11.20;99.90
20479;DHT22;10398;52.490;13.434;2022-12-29T16:02:17;11.20;99.90
20479;DHT22;10398;52.490;13.434;2022-12-29T16:04:43;11.20;99.90
20479;DHT22;10398;52.490;13.434;2022-12-29T16:09:59;11.10;99.90
20479;DHT22;10398;52.490;13.434;2022-12-29T16:12:31;11.00;99.90
20479;DHT22;10398;52.490;13.434;2022-12-29T16:14:59;11.10;99.90
20479;DHT22;10398;52.490;13.434;2022-12-29T16:17:28;11.10;99.90
20479;DHT22;10398;52.490;13.434;2022-12-29T16:20:23;11.10;99.90
20479;DHT22;10398;52.490;13.434;2022-12-29T16:22:53;11.20;99.90
20479;DHT22;10398;52.490;13.434;2022-12-29T16:25:24;11.10;99.90
20479;DHT22;10398;52.490;13.434;2022-12-29T16:27:51;11.10;99.90
20479;DHT22;10398;52.490;13.434;2022-12-29T16:30:26;11.20;99.90
20479;DHT22;10398;52.490;13.434;2022-12-29T16:32:55;11.10;99.90
20479;DHT22;10398;52.490;13.434;2022-12-29T16:35:22;11.10;99.90
20479;DHT22;10398;52.490;13.434;2022-12-29T16:40:37;11.10;99.90
20479;DHT22;10398;52.490;13.434;2022-12-29T16:43:03;11.10;99.90
20479;DHT22;10398;52.490;13.434;2022-12-29T16:48:29;11.10;99.90
20479;DHT22;10398;52.490;13.434;2022-12-29T16:51:12;11.10;99.90
20479;DHT22;10398;52.490;13.434;2022-12-29T16:53:40;11.10;99.90
20479;DHT22;10398;52.490;13.434;2022-12-29T16:56:28;11.20;99.90
20479;DHT22;10398;52.490;13.434;2022-12-29T16:59:05;11.10;99.90
20479;DHT22;10398;52.490;13.434;2022-12-29T17:01:36;11.10;99.90
20479;DHT22;10398;52.490;13.434;2022-12-29T17:04:06;11.00;99.90
20479;DHT22;10398;52.490;13.434;2022-12-29T17:06:33;11.00;99.90
20479;DHT22;10398;52.490;13.434;2022-12-29T17:08:58;11.00;99.90
20479;DHT22;10398;52.490;13.434;2022-12-29T17:11:36;11.00;99.90
20479;DHT22;10398;52.490;13.434;2022-12-29T17:14:45;11.00;99.90
20479;DHT22;10398;52.490;13.434;2022-12-29T17:17:32;11.00;99.90
20479;DHT22;10398;52.490;13.434;2022-12-29T17:20:05;11.00;99.90
20479;DHT22;10398;52.490;13.434;2022-12-29T17:22:32;11.00;99.90
20479;DHT22;10398;52.490;13.434;2022-12-29T17:25:00;11.10;99.90
20479;DHT22;10398;52.490;13.434;2022-12-29T17:27:34;11.10;99.90
20479;DHT22;10398;52.490;13.434;2022-12-29T17:30:11;11.10;99.90
20479;DHT22;10398;52.490;13.434;2022-12-29T17:32:38;11.10;99.90
20479;DHT22;10398;52.490;13.434;2022-12-29T17:35:04;11.10;99.90
20479;DHT22;10398;52.490;13.434;2022-12-29T17:37:35;11.10;99.90
20479;DHT22;10398;52.490;13.434;2022-12-29T17:40:02;11.20;99.90
20479;DHT22;10398;52.490;13.434;2022-12-29T17:42:29;11.10;99.90
20479;DHT22;10398;52.490;13.434;2022-12-29T17:44:58;11.20;99.90
20479;DHT22;10398;52.490;13.434;2022-12-29T17:47:23;11.20;99.90
20479;DHT22;10398;52.490;13.434;2022-12-29T17:49:49;11.20;99.90
20479;DHT22;10398;52.490;13.434;2022-12-29T17:52:15;11.20;99.90
20479;DHT22;10398;52.490;13.434;2022-12-29T17:54:46;11.20;99.90
20479;DHT22;10398;52.490;13.434;2022-12-29T17:57:15;11.20;99.90
20479;DHT22;10398;52.490;13.434;2022-12-29T17:59:41;11.20;99.90
20479;DHT22;10398;52.490;13.434;2022-12-29T18:02:25;11.20;99.90
20479;DHT22;10398;52.490;13.434;2022-12-29T18:04:52;11.20;99.90
20479;DHT22;10398;52.490;13.434;2022-12-29T18:07:18;11.20;99.90
20479;DHT22;10398;52.490;13.434;2022-12-29T18:09:43;11.30;99.90
20479;DHT22;10398;52.490;13.434;2022-12-29T18:12:37;11.20;99.90